Joe Creek, South Dakota
Current Conditions -  °F | °C
As of 1:53 AM on Monday 26 Jan 2015 (Local Time) from KPIR Reporting Station
Clear Clear  
Wind Chill: 28°   Ceiling: Unl
Heat Index: 36°   Visibility: 10mi
Dew Point: 28°   Wind: 10mph
Humidity: 73%   Direction: 240°WSW
Pressure: 29.85"   Gusts: NA
Location:  44.5157°N, 99.7243°W
Report Text: KPIR 260753Z AUTO 24009KT 10SM CLR 02/M02 A2985 RMK AO2 SLP119 T00221022
Loading
Personal Weather Stations






























Interactive Weather Map New forecast layout! Learn more

10-Day Weather Forecast

Advertisements
Track Severe Weather on mobile